createdAt,value
2022-12-04T00:01:20.133Z,100235.47
2022-12-04T00:03:46.737Z,100229.47
2022-12-04T00:06:18.135Z,100235.50
2022-12-04T00:08:45.685Z,100238.91
2022-12-04T00:11:15.181Z,100240.69
2022-12-04T00:13:42.366Z,100241.50
2022-12-04T00:16:12.551Z,100240.66
2022-12-04T00:18:39.674Z,100226.09
2022-12-04T00:21:08.435Z,100224.41
2022-12-04T00:23:36.884Z,100224.38
2022-12-04T00:26:05.745Z,100226.97
2022-12-04T00:28:32.885Z,100233.81
2022-12-04T00:30:59.451Z,100225.31
2022-12-04T00:33:26.769Z,100228.66
2022-12-04T00:36:01.358Z,100233.00
2022-12-04T00:38:28.829Z,100233.06
2022-12-04T00:40:55.633Z,100220.19
2022-12-04T00:43:23.517Z,100226.06
2022-12-04T00:45:51.182Z,100224.34
2022-12-04T00:48:17.909Z,100221.84
2022-12-04T00:50:44.998Z,100222.75
2022-12-04T00:53:12.456Z,100226.16
2022-12-04T00:55:43.345Z,100222.69
2022-12-04T00:58:10.780Z,100224.38
2022-12-04T01:00:40.133Z,100222.69
2022-12-04T01:03:07.715Z,100224.41
2022-12-04T01:05:44.204Z,100214.97
2022-12-04T01:08:11.871Z,100205.53
2022-12-04T01:10:40.693Z,100208.97
2022-12-04T01:13:07.136Z,100201.31
2022-12-04T01:15:34.283Z,100193.63
2022-12-04T01:18:00.669Z,100194.44
2022-12-04T01:20:27.207Z,100198.78
2022-12-04T01:22:54.619Z,100191.00
2022-12-04T01:25:21.536Z,100202.94
2022-12-04T01:27:48.452Z,100207.31
2022-12-04T01:30:15.211Z,100212.34
2022-12-04T01:32:41.667Z,100212.31
2022-12-04T01:35:09.221Z,100205.44
2022-12-04T01:37:36.187Z,100200.38
2022-12-04T01:40:03.637Z,100216.78
2022-12-04T01:42:50.296Z,100214.13
2022-12-04T01:45:50.445Z,100215.06
2022-12-04T01:48:50.282Z,100211.63
2022-12-04T01:51:41.364Z,100203.88
2022-12-04T01:54:32.323Z,100210.66
2022-12-04T01:57:21.693Z,100213.31
2022-12-04T02:00:00.914Z,100209.91
2022-12-04T02:02:36.964Z,100204.63
2022-12-04T02:05:07.112Z,100208.09
2022-12-04T02:07:34.253Z,100203.72
2022-12-04T02:10:06.148Z,100206.22
2022-12-04T02:12:42.874Z,100203.75
2022-12-04T02:15:35.617Z,100210.69
2022-12-04T02:18:33.317Z,100211.50
2022-12-04T02:21:28.878Z,100213.22
2022-12-04T02:24:20.706Z,100209.72
2022-12-04T02:26:53.794Z,100214.03
2022-12-04T02:29:42.208Z,100214.91
2022-12-04T02:32:36.729Z,100214.78
2022-12-04T02:35:09.549Z,100204.47
2022-12-04T02:37:40.035Z,100201.00
2022-12-04T02:40:26.732Z,100208.00
2022-12-04T02:42:58.230Z,100222.47
2022-12-04T02:45:37.908Z,100225.03
2022-12-04T02:48:07.885Z,100213.88
2022-12-04T02:50:39.791Z,100211.34
2022-12-04T02:53:14.977Z,100209.53
2022-12-04T02:55:50.784Z,100215.53
2022-12-04T02:58:52.162Z,100214.63
2022-12-04T03:01:25.096Z,100202.59
2022-12-04T03:03:58.007Z,100206.88
2022-12-04T03:06:27.917Z,100198.28
2022-12-04T03:09:03.307Z,100194.00
2022-12-04T03:11:34.652Z,100190.53
2022-12-04T03:14:10.654Z,100187.94
2022-12-04T03:16:42.532Z,100174.34
2022-12-04T03:19:17.298Z,100185.50
2022-12-04T03:21:54.596Z,100172.75
2022-12-04T03:24:29.352Z,100172.69
2022-12-04T03:27:03.772Z,100172.56
2022-12-04T03:29:46.747Z,100175.88
2022-12-04T03:32:24.024Z,100167.50
2022-12-04T03:35:19.928Z,100170.97
2022-12-04T03:37:58.275Z,100173.69
2022-12-04T03:40:42.142Z,100162.41
2022-12-04T03:43:16.549Z,100169.25
2022-12-04T03:45:48.942Z,100158.06
2022-12-04T03:48:53.178Z,100159.75
2022-12-04T03:51:47.169Z,100170.13
2022-12-04T03:54:35.333Z,100160.53
2022-12-04T03:57:28.533Z,100158.75
2022-12-04T04:00:06.042Z,100164.03
2022-12-04T04:02:52.619Z,100158.91
2022-12-04T04:05:20.371Z,100152.06
2022-12-04T04:07:52.000Z,100154.50
2022-12-04T04:10:26.528Z,100145.13
2022-12-04T04:13:21.357Z,100148.66
2022-12-04T04:16:11.635Z,100156.34
2022-12-04T04:18:57.302Z,100150.38
2022-12-04T04:21:50.803Z,100148.72
2022-12-04T04:24:38.738Z,100146.94
2022-12-04T04:27:06.111Z,100143.34
2022-12-04T04:29:32.836Z,100145.91
2022-12-04T04:32:02.134Z,100142.47
2022-12-04T04:35:03.860Z,100136.53
2022-12-04T04:37:40.044Z,100134.88
2022-12-04T04:40:23.751Z,100133.97
2022-12-04T04:43:05.705Z,100139.91
2022-12-04T04:45:45.514Z,100135.69
2022-12-04T04:48:18.293Z,100139.91
2022-12-04T04:50:45.716Z,100145.06
2022-12-04T04:53:18.521Z,100138.19
2022-12-04T04:55:45.634Z,100134.84
2022-12-04T04:58:16.225Z,100145.81
2022-12-04T05:00:53.978Z,100146.69
2022-12-04T05:03:21.073Z,100158.56
2022-12-04T05:05:47.796Z,100163.00
2022-12-04T05:08:14.330Z,100166.44
2022-12-04T05:10:40.842Z,100163.94
2022-12-04T05:13:09.098Z,100162.25
2022-12-04T05:15:35.789Z,100157.00
2022-12-04T05:18:02.557Z,100159.44
2022-12-04T05:20:29.126Z,100159.50
2022-12-04T05:22:56.044Z,100166.53
2022-12-04T05:25:22.761Z,100161.31
2022-12-04T05:27:49.454Z,100152.72
2022-12-04T05:30:16.505Z,100159.56
2022-12-04T05:32:43.561Z,100154.41
2022-12-04T05:35:11.623Z,100153.53
2022-12-04T05:37:40.925Z,100163.78
2022-12-04T05:40:08.598Z,100159.53
2022-12-04T05:42:35.418Z,100154.38
2022-12-04T05:45:02.353Z,100143.13
2022-12-04T05:47:28.824Z,100143.09
2022-12-04T05:49:55.774Z,100144.72
2022-12-04T05:52:22.756Z,100148.16
2022-12-04T05:54:49.189Z,100154.41
2022-12-04T05:57:15.646Z,100156.09
2022-12-04T05:59:42.131Z,100158.69
2022-12-04T06:02:08.903Z,100164.78
2022-12-04T06:04:37.436Z,100164.78
2022-12-04T06:07:04.036Z,100159.53
2022-12-04T06:09:30.749Z,100164.66
2022-12-04T06:11:58.699Z,100162.13
2022-12-04T06:14:25.466Z,100164.66
2022-12-04T06:16:52.089Z,100167.19
2022-12-04T06:19:20.399Z,100162.03
2022-12-04T06:21:49.657Z,100158.59
2022-12-04T06:24:21.553Z,100165.53
2022-12-04T06:27:18.856Z,100159.63
2022-12-04T06:29:35.234Z,100162.97
2022-12-04T06:32:01.855Z,100158.66
2022-12-04T06:34:28.613Z,100156.78
2022-12-04T06:36:55.568Z,100167.13
2022-12-04T06:39:22.493Z,100165.53
2022-12-04T06:41:49.159Z,100162.94
2022-12-04T06:44:16.536Z,100161.22
2022-12-04T06:46:47.228Z,100151.81
2022-12-04T06:49:14.588Z,100154.22
2022-12-04T06:51:41.639Z,100141.25
2022-12-04T06:54:10.184Z,100137.72
2022-12-04T06:56:36.620Z,100153.34
2022-12-04T06:59:04.453Z,100155.13
2022-12-04T07:01:33.338Z,100156.06
2022-12-04T07:04:01.143Z,100149.97
2022-12-04T07:06:33.721Z,100150.75
2022-12-04T07:09:03.079Z,100155.84
2022-12-04T07:11:30.645Z,100154.19
2022-12-04T07:13:57.626Z,100147.16
2022-12-04T07:16:26.000Z,100151.47
2022-12-04T07:18:56.429Z,100150.69
2022-12-04T07:21:25.991Z,100150.59
2022-12-04T07:23:55.120Z,100142.19
2022-12-04T07:26:23.284Z,100145.56
2022-12-04T07:28:50.789Z,100154.94
2022-12-04T07:31:20.280Z,100144.69
2022-12-04T07:33:47.681Z,100158.34
2022-12-04T07:36:16.603Z,100158.28
2022-12-04T07:38:44.159Z,100159.09
2022-12-04T07:41:13.350Z,100160.09
2022-12-04T07:43:40.792Z,100164.31
2022-12-04T07:46:13.291Z,100170.28
2022-12-04T07:48:40.359Z,100160.81
2022-12-04T07:51:09.686Z,100163.41
2022-12-04T07:53:36.955Z,100165.16
2022-12-04T07:56:04.863Z,100159.06
2022-12-04T07:58:32.653Z,100159.09
2022-12-04T08:01:24.350Z,100159.13
2022-12-04T08:03:54.953Z,100157.47
2022-12-04T08:06:23.066Z,100161.91
2022-12-04T08:08:50.187Z,100154.00
2022-12-04T08:11:19.950Z,100156.34
2022-12-04T08:13:47.219Z,100155.59
2022-12-04T08:16:15.052Z,100152.19
2022-12-04T08:18:46.744Z,100155.69
2022-12-04T08:21:16.272Z,100158.31
2022-12-04T08:23:44.356Z,100161.66
2022-12-04T08:26:12.260Z,100156.44
2022-12-04T08:28:41.334Z,100147.81
2022-12-04T08:31:14.956Z,100149.56
2022-12-04T08:33:43.142Z,100148.72
2022-12-04T08:36:12.225Z,100146.19
2022-12-04T08:38:39.720Z,100141.03
2022-12-04T08:41:08.778Z,100153.03
2022-12-04T08:43:35.259Z,100150.41
2022-12-04T08:46:05.111Z,100156.47
2022-12-04T08:48:32.833Z,100156.44
2022-12-04T08:50:59.936Z,100158.03
2022-12-04T08:53:26.405Z,100158.88
2022-12-04T08:55:53.322Z,100164.00
2022-12-04T08:58:20.046Z,100157.97
2022-12-04T09:00:46.864Z,100160.50
2022-12-04T09:03:15.900Z,100161.25
2022-12-04T09:05:45.707Z,100152.72
2022-12-04T09:08:17.568Z,100156.19
2022-12-04T09:10:44.393Z,100154.38
2022-12-04T09:13:11.111Z,100147.41
2022-12-04T09:15:41.328Z,100145.69
2022-12-04T09:18:09.190Z,100149.94
2022-12-04T09:20:36.773Z,100151.56
2022-12-04T09:23:05.455Z,100156.00
2022-12-04T09:25:36.209Z,100162.19
2022-12-04T09:28:04.316Z,100170.78
2022-12-04T09:30:31.019Z,100170.56
2022-12-04T09:32:57.743Z,100168.09
2022-12-04T09:35:24.243Z,100167.25
2022-12-04T09:37:51.160Z,100166.28
2022-12-04T09:40:38.862Z,100168.75
2022-12-04T09:43:26.081Z,100160.09
2022-12-04T09:45:58.446Z,100166.00
2022-12-04T09:48:36.557Z,100162.63
2022-12-04T09:51:06.821Z,100169.72
2022-12-04T09:53:45.170Z,100150.75
2022-12-04T09:56:17.225Z,100147.25
2022-12-04T09:59:22.363Z,100148.75
2022-12-04T10:02:00.408Z,100148.88
2022-12-04T10:04:26.980Z,100136.72
2022-12-04T10:07:15.909Z,100142.78
2022-12-04T10:09:50.640Z,100137.56
2022-12-04T10:12:41.040Z,100135.91
2022-12-04T10:15:31.094Z,100133.38
2022-12-04T10:18:03.629Z,100128.88
2022-12-04T10:20:50.188Z,100131.50
2022-12-04T10:23:29.329Z,100115.09
2022-12-04T10:25:56.193Z,100115.22
2022-12-04T10:28:28.733Z,100111.63
2022-12-04T10:31:00.521Z,100104.69
2022-12-04T10:33:47.514Z,100110.72
2022-12-04T10:36:19.624Z,100099.34
2022-12-04T10:38:57.267Z,100095.13
2022-12-04T10:41:36.278Z,100099.47
2022-12-04T10:44:03.096Z,100083.03
2022-12-04T10:46:32.923Z,100083.22
2022-12-04T10:49:03.021Z,100085.75
2022-12-04T10:51:38.585Z,100075.41
2022-12-04T10:54:15.727Z,100075.59
2022-12-04T10:57:00.627Z,100067.16
2022-12-04T10:59:28.887Z,100068.09
2022-12-04T11:02:16.212Z,100070.94
2022-12-04T11:04:43.423Z,100066.59
2022-12-04T11:07:21.466Z,100070.91
2022-12-04T11:10:06.695Z,100071.63
2022-12-04T11:12:34.023Z,100071.72
2022-12-04T11:15:14.695Z,100068.31
2022-12-04T11:17:41.387Z,100075.13
2022-12-04T11:20:16.474Z,100064.91
2022-12-04T11:22:57.658Z,100071.78
2022-12-04T11:25:31.959Z,100064.06
2022-12-04T11:28:01.299Z,100065.66
2022-12-04T11:30:36.927Z,100067.38
2022-12-04T11:33:06.345Z,100072.63
2022-12-04T11:35:33.068Z,100069.28
2022-12-04T11:38:02.443Z,100080.38
2022-12-04T11:40:30.162Z,100086.50
2022-12-04T11:43:06.445Z,100082.91
2022-12-04T11:45:33.785Z,100092.41
2022-12-04T11:48:04.934Z,100088.00
2022-12-04T11:50:58.034Z,100089.78
2022-12-04T11:53:39.887Z,100100.16
2022-12-04T11:56:21.753Z,100095.84
2022-12-04T11:59:07.914Z,100094.97
2022-12-04T12:01:47.562Z,100098.84
2022-12-04T12:04:23.783Z,100087.38
2022-12-04T12:06:58.840Z,100084.72
2022-12-04T12:09:35.180Z,100082.03
2022-12-04T12:12:10.216Z,100082.06
2022-12-04T12:14:58.525Z,100070.94
2022-12-04T12:17:51.417Z,100078.69
2022-12-04T12:20:37.317Z,100078.84
2022-12-04T12:23:30.857Z,100076.50
2022-12-04T12:26:09.010Z,100080.66
2022-12-04T12:28:44.808Z,100081.38
2022-12-04T12:31:30.009Z,100076.31
2022-12-04T12:34:14.659Z,100090.84
2022-12-04T12:36:47.473Z,100088.44
2022-12-04T12:39:25.222Z,100087.44
2022-12-04T12:42:01.613Z,100091.03
2022-12-04T12:44:57.576Z,100096.97
2022-12-04T12:47:30.560Z,100094.38
2022-12-04T12:50:03.603Z,100091.78
2022-12-04T12:52:35.077Z,100084.06
2022-12-04T12:55:18.008Z,100073.03
2022-12-04T12:57:49.657Z,100061.06
2022-12-04T13:00:19.975Z,100049.75
2022-12-04T13:02:53.446Z,100052.34
2022-12-04T13:05:43.089Z,100053.28
2022-12-04T13:08:27.647Z,100047.25
2022-12-04T13:11:18.214Z,100042.88
2022-12-04T13:13:53.185Z,100041.13
2022-12-04T13:16:28.697Z,100033.72
2022-12-04T13:19:17.997Z,100028.59
2022-12-04T13:21:53.577Z,100028.59
2022-12-04T13:24:57.726Z,100023.31
2022-12-04T13:27:55.821Z,100024.38
2022-12-04T13:30:41.313Z,100030.25
2022-12-04T13:33:42.002Z,100038.00
2022-12-04T13:36:30.157Z,100043.34
2022-12-04T13:39:11.917Z,100045.91
2022-12-04T13:41:39.251Z,100040.53
2022-12-04T13:44:22.379Z,100035.56
2022-12-04T13:47:24.526Z,100026.75
2022-12-04T13:49:52.279Z,100026.69
2022-12-04T13:52:24.384Z,100022.59
2022-12-04T13:54:58.995Z,100023.41
2022-12-04T13:57:27.312Z,100029.31
2022-12-04T14:00:08.267Z,100027.56
2022-12-04T14:02:50.687Z,100025.88
2022-12-04T14:05:27.500Z,100015.78
2022-12-04T14:08:07.273Z,100009.63
2022-12-04T14:10:38.663Z,100004.53
2022-12-04T14:13:14.473Z,100020.94
2022-12-04T14:15:41.477Z,100031.25
2022-12-04T14:18:10.667Z,100025.91
2022-12-04T14:20:38.888Z,100026.97
2022-12-04T14:23:16.323Z,100033.81
2022-12-04T14:25:42.943Z,100040.69
2022-12-04T14:28:24.888Z,100046.63
2022-12-04T14:31:12.724Z,100046.53
2022-12-04T14:33:45.176Z,100052.50
2022-12-04T14:36:20.460Z,100061.13
2022-12-04T14:38:50.835Z,100061.06
2022-12-04T14:41:25.232Z,100068.56
2022-12-04T14:43:52.276Z,100070.44
2022-12-04T14:46:52.993Z,100055.13
2022-12-04T14:49:25.361Z,100057.72
2022-12-04T14:52:13.085Z,100057.72
2022-12-04T14:55:16.015Z,100059.59
2022-12-04T14:58:21.437Z,100063.75
2022-12-04T15:00:53.636Z,100059.47
2022-12-04T15:03:21.431Z,100058.63
2022-12-04T15:05:49.850Z,100050.13
2022-12-04T15:08:17.144Z,100056.91
2022-12-04T15:11:09.273Z,100058.72
2022-12-04T15:13:38.161Z,100054.34
2022-12-04T15:16:23.221Z,100046.69
2022-12-04T15:18:56.329Z,100048.34
2022-12-04T15:21:28.480Z,100043.19
2022-12-04T15:23:54.992Z,100035.34
2022-12-04T15:26:24.383Z,100032.03
2022-12-04T15:28:51.934Z,100032.97
2022-12-04T15:31:25.883Z,100045.84
2022-12-04T15:33:59.804Z,100047.50
2022-12-04T15:37:07.579Z,100052.72
2022-12-04T15:39:35.670Z,100054.34
2022-12-04T15:42:24.934Z,100060.34
2022-12-04T15:45:01.173Z,100060.19
2022-12-04T15:47:50.130Z,100064.66
2022-12-04T15:50:16.478Z,100064.50
2022-12-04T15:53:03.930Z,100061.91
2022-12-04T15:55:36.535Z,100061.09
2022-12-04T15:58:26.697Z,100058.59
2022-12-04T16:01:06.359Z,100057.72
2022-12-04T16:03:47.600Z,100056.63
2022-12-04T16:06:24.800Z,100053.19
2022-12-04T16:08:57.051Z,100048.06
2022-12-04T16:11:30.435Z,100048.06
2022-12-04T16:14:08.739Z,100052.50
2022-12-04T16:16:38.318Z,100055.03
2022-12-04T16:19:16.677Z,100048.06
2022-12-04T16:21:44.084Z,100055.91
2022-12-04T16:24:13.160Z,100059.31
2022-12-04T16:26:40.553Z,100060.94
2022-12-04T16:29:07.346Z,100063.41
2022-12-04T16:31:34.238Z,100062.44
2022-12-04T16:34:00.768Z,100063.28
2022-12-04T16:36:27.195Z,100069.34
2022-12-04T16:38:53.812Z,100070.25
2022-12-04T16:41:21.245Z,100076.09
2022-12-04T16:43:55.835Z,100068.75
2022-12-04T16:46:24.488Z,100055.84
2022-12-04T16:48:51.268Z,100056.72
2022-12-04T16:51:21.404Z,100049.81
2022-12-04T16:53:48.986Z,100051.69
2022-12-04T16:56:15.513Z,100055.06
2022-12-04T16:58:42.221Z,100057.66
2022-12-04T17:01:28.270Z,100051.69
2022-12-04T17:03:55.073Z,100050.88
2022-12-04T17:06:21.646Z,100049.09
2022-12-04T17:08:48.190Z,100042.09
2022-12-04T17:11:16.583Z,100043.09
2022-12-04T17:13:43.766Z,100030.09
2022-12-04T17:16:14.661Z,100030.94
2022-12-04T17:18:42.538Z,100031.06
2022-12-04T17:21:11.392Z,100031.03
2022-12-04T17:23:38.640Z,100027.66
2022-12-04T17:26:08.361Z,100031.09
2022-12-04T17:28:36.368Z,100032.88
2022-12-04T17:31:04.631Z,100021.72
2022-12-04T17:33:31.610Z,100017.47
2022-12-04T17:36:00.159Z,100015.72
2022-12-04T17:38:27.682Z,100014.84
2022-12-04T17:41:02.804Z,100012.25
2022-12-04T17:43:31.221Z,100011.47
2022-12-04T17:45:58.700Z,100021.78
2022-12-04T17:48:37.132Z,100030.25
2022-12-04T17:51:15.562Z,100036.28
2022-12-04T17:53:42.913Z,100048.34
2022-12-04T17:56:12.383Z,100044.84
2022-12-04T17:58:39.345Z,100063.97
2022-12-04T18:01:08.633Z,100061.47
2022-12-04T18:03:37.548Z,100062.09
2022-12-04T18:06:15.136Z,100062.84
2022-12-04T18:08:46.605Z,100061.22
2022-12-04T18:11:18.581Z,100054.19
2022-12-04T18:13:44.946Z,100056.75
2022-12-04T18:16:11.564Z,100054.16
2022-12-04T18:18:38.544Z,100053.28
2022-12-04T18:21:09.362Z,100050.81
2022-12-04T18:23:37.698Z,100049.28
2022-12-04T18:26:04.888Z,100056.88
2022-12-04T18:28:31.790Z,100055.13
2022-12-04T18:31:06.421Z,100044.75
2022-12-04T18:33:35.056Z,100051.00
2022-12-04T18:36:02.515Z,100055.19
2022-12-04T18:38:30.893Z,100050.81
2022-12-04T18:41:05.314Z,100057.75
2022-12-04T18:43:36.424Z,100045.72
2022-12-04T18:46:07.709Z,100057.75
2022-12-04T18:48:35.498Z,100053.47
2022-12-04T18:51:01.966Z,100057.88
2022-12-04T18:53:28.405Z,100061.13
2022-12-04T18:55:54.876Z,100058.56
2022-12-04T18:58:22.813Z,100063.75
2022-12-04T19:00:51.643Z,100059.44
2022-12-04T19:03:18.400Z,100061.09
2022-12-04T19:05:49.509Z,100061.09
2022-12-04T19:08:17.196Z,100060.28
2022-12-04T19:10:43.717Z,100064.63
2022-12-04T19:13:10.481Z,100063.13
2022-12-04T19:15:42.239Z,100065.69
2022-12-04T19:18:09.099Z,100073.38
2022-12-04T19:20:35.511Z,100072.47
2022-12-04T19:23:02.302Z,100080.28
2022-12-04T19:25:29.132Z,100077.78
2022-12-04T19:27:56.200Z,100084.59
2022-12-04T19:30:22.903Z,100091.50
2022-12-04T19:32:49.471Z,100085.38
2022-12-04T19:35:16.013Z,100089.69
2022-12-04T19:37:44.817Z,100087.13
2022-12-04T19:40:14.879Z,100090.59
2022-12-04T19:42:41.517Z,100099.97
2022-12-04T19:45:08.411Z,100110.16
2022-12-04T19:47:35.011Z,100112.63
2022-12-04T19:50:02.092Z,100115.25
2022-12-04T19:52:28.665Z,100114.34
2022-12-04T19:54:55.715Z,100119.59
2022-12-04T19:57:22.485Z,100116.28
2022-12-04T19:59:49.117Z,100117.94
2022-12-04T20:02:15.764Z,100122.94
2022-12-04T20:04:43.176Z,100129.78
2022-12-04T20:07:10.034Z,100126.38
2022-12-04T20:09:36.449Z,100134.91
2022-12-04T20:12:03.498Z,100134.22
2022-12-04T20:14:30.042Z,100128.31
2022-12-04T20:16:57.211Z,100135.25
2022-12-04T20:19:23.839Z,100137.84
2022-12-04T20:21:56.127Z,100132.66
2022-12-04T20:24:25.755Z,100132.72
2022-12-04T20:26:52.701Z,100134.44
2022-12-04T20:29:19.220Z,100143.72
2022-12-04T20:31:47.012Z,100143.78
2022-12-04T20:34:18.079Z,100139.53
2022-12-04T20:36:46.984Z,100134.41
2022-12-04T20:39:15.122Z,100142.94
2022-12-04T20:41:41.980Z,100139.38
2022-12-04T20:44:12.032Z,100139.31
2022-12-04T20:46:39.938Z,100141.91
2022-12-04T20:49:10.183Z,100150.66
2022-12-04T20:51:40.011Z,100152.28
2022-12-04T20:54:07.765Z,100149.75
2022-12-04T20:56:36.825Z,100145.41
2022-12-04T20:59:07.977Z,100145.34
2022-12-04T21:01:35.812Z,100143.56
2022-12-04T21:04:03.965Z,100147.03
2022-12-04T21:06:36.021Z,100148.72
2022-12-04T21:09:08.552Z,100152.31
2022-12-04T21:11:42.161Z,100154.88
2022-12-04T21:14:36.686Z,100156.75
2022-12-04T21:17:04.478Z,100159.41
2022-12-04T21:19:32.026Z,100143.06
2022-12-04T21:21:58.991Z,100148.19
2022-12-04T21:24:28.620Z,100160.25
2022-12-04T21:26:55.501Z,100155.84
2022-12-04T21:29:22.632Z,100151.47
2022-12-04T21:31:49.150Z,100150.78
2022-12-04T21:34:17.555Z,100152.53
2022-12-04T21:36:46.093Z,100161.97
2022-12-04T21:39:14.751Z,100156.78
2022-12-04T21:42:00.101Z,100160.09
2022-12-04T21:44:26.990Z,100154.06
2022-12-04T21:46:53.993Z,100164.53
2022-12-04T21:49:20.603Z,100160.16
2022-12-04T21:51:57.245Z,100160.19
2022-12-04T21:54:24.898Z,100154.94
2022-12-04T21:56:51.500Z,100163.50
2022-12-04T21:59:18.236Z,100161.84
2022-12-04T22:01:44.801Z,100163.44
2022-12-04T22:04:11.836Z,100168.72
2022-12-04T22:06:38.353Z,100169.59
2022-12-04T22:09:10.276Z,100167.03
2022-12-04T22:11:37.815Z,100172.16
2022-12-04T22:14:04.642Z,100182.47
2022-12-04T22:16:33.786Z,100184.09
2022-12-04T22:19:02.276Z,100179.13
2022-12-04T22:21:29.010Z,100188.56
2022-12-04T22:23:57.290Z,100180.81
2022-12-04T22:26:28.075Z,100177.44
2022-12-04T22:28:55.064Z,100187.78
2022-12-04T22:31:24.178Z,100184.41
2022-12-04T22:33:54.232Z,100186.00
2022-12-04T22:36:23.970Z,100189.34
2022-12-04T22:39:09.861Z,100202.16
2022-12-04T22:41:37.591Z,100199.56
2022-12-04T22:44:04.615Z,100197.81
2022-12-04T22:46:31.739Z,100199.56
2022-12-04T22:48:59.313Z,100203.88
2022-12-04T22:51:26.988Z,100203.97
2022-12-04T22:53:55.880Z,100208.19
2022-12-04T22:56:29.170Z,100204.75
2022-12-04T22:58:57.662Z,100206.56
2022-12-04T23:01:26.685Z,100209.13
2022-12-04T23:03:53.582Z,100210.00
2022-12-04T23:06:21.752Z,100214.28
2022-12-04T23:08:48.425Z,100216.66
2022-12-04T23:11:18.530Z,100213.25
2022-12-04T23:13:50.357Z,100207.28
2022-12-04T23:16:20.333Z,100198.66
2022-12-04T23:18:47.827Z,100206.44
2022-12-04T23:21:15.002Z,100198.00
2022-12-04T23:23:43.455Z,100206.63
2022-12-04T23:26:13.518Z,100203.88
2022-12-04T23:28:40.249Z,100204.75
2022-12-04T23:31:07.482Z,100210.75
2022-12-04T23:33:34.335Z,100217.50
2022-12-04T23:36:02.590Z,100207.16
2022-12-04T23:38:29.725Z,100208.03
2022-12-04T23:41:02.338Z,100211.44
2022-12-04T23:43:29.102Z,100206.25
2022-12-04T23:45:56.142Z,100204.53
2022-12-04T23:48:22.890Z,100219.28
2022-12-04T23:50:49.345Z,100220.97
2022-12-04T23:53:15.984Z,100222.84
2022-12-04T23:55:42.762Z,100216.91
2022-12-04T23:58:09.542Z,100231.31
